createdAt,value
2018-06-20T00:00:09.144Z,82.46
2018-06-20T00:02:37.523Z,82.29
2018-06-20T00:05:05.952Z,82.29
2018-06-20T00:07:34.331Z,81.32
2018-06-20T00:10:02.741Z,81.52
2018-06-20T00:12:31.077Z,82.92
2018-06-20T00:14:59.475Z,81.89
2018-06-20T00:17:27.809Z,82.02
2018-06-20T00:19:56.199Z,82.21
2018-06-20T00:22:24.844Z,81.96
2018-06-20T00:24:53.167Z,81.92
2018-06-20T00:27:21.519Z,83.01
2018-06-20T00:29:49.883Z,82.03
2018-06-20T00:32:18.324Z,82.87
2018-06-20T00:34:46.762Z,82.91
2018-06-20T00:37:15.160Z,82.07
2018-06-20T00:39:43.533Z,82.50
2018-06-20T00:42:11.967Z,83.08
2018-06-20T00:44:40.347Z,82.17
2018-06-20T00:47:08.757Z,81.89
2018-06-20T00:49:37.159Z,83.23
2018-06-20T00:52:05.528Z,83.29
2018-06-20T00:54:33.982Z,83.49
2018-06-20T00:57:02.367Z,82.66
2018-06-20T00:59:30.762Z,83.12
2018-06-20T01:01:59.160Z,83.43
2018-06-20T01:04:27.579Z,82.55
2018-06-20T01:06:55.953Z,83.37
2018-06-20T01:09:24.361Z,83.29
2018-06-20T01:11:52.868Z,83.15
2018-06-20T01:14:21.127Z,82.95
2018-06-20T01:16:49.495Z,83.13
2018-06-20T01:19:17.907Z,83.21
2018-06-20T01:21:46.254Z,82.98
2018-06-20T01:24:15.024Z,82.88
2018-06-20T01:26:43.422Z,82.87
2018-06-20T01:29:11.827Z,81.86
2018-06-20T01:31:40.219Z,83.05
2018-06-20T01:34:08.539Z,82.24
2018-06-20T01:36:36.918Z,82.38
2018-06-20T01:39:08.067Z,82.96
2018-06-20T01:41:36.474Z,83.03
2018-06-20T01:44:05.199Z,82.91
2018-06-20T01:46:33.594Z,82.55
2018-06-20T01:49:02.010Z,82.44
2018-06-20T01:51:30.428Z,82.57
2018-06-20T01:53:58.799Z,81.74
2018-06-20T01:56:27.196Z,82.41
2018-06-20T01:58:55.539Z,81.60
2018-06-20T02:01:23.959Z,81.59
2018-06-20T02:03:52.354Z,82.95
2018-06-20T02:06:20.760Z,81.87
2018-06-20T02:08:52.299Z,83.00
2018-06-20T02:11:20.715Z,82.95
2018-06-20T02:13:49.121Z,82.74
2018-06-20T02:16:17.552Z,82.29
2018-06-20T02:18:45.952Z,82.76
2018-06-20T02:21:14.397Z,82.72
2018-06-20T02:23:42.824Z,83.04
2018-06-20T02:26:11.236Z,82.92
2018-06-20T02:28:39.639Z,82.07
2018-06-20T02:31:08.361Z,83.12
2018-06-20T02:33:37.061Z,83.08
2018-06-20T02:36:10.888Z,83.11
2018-06-20T02:38:39.493Z,82.04
2018-06-20T02:41:07.908Z,82.25
2018-06-20T02:43:36.316Z,83.02
2018-06-20T02:46:04.800Z,82.20
2018-06-20T02:48:33.244Z,82.92
2018-06-20T02:51:01.640Z,82.63
2018-06-20T02:53:30.022Z,83.56
2018-06-20T02:55:58.416Z,83.60
2018-06-20T02:58:26.854Z,82.65
2018-06-20T03:00:55.447Z,82.79
2018-06-20T03:03:23.851Z,82.59
2018-06-20T03:05:52.261Z,82.92
2018-06-20T03:08:20.668Z,82.71
2018-06-20T03:10:49.076Z,82.96
2018-06-20T03:13:17.553Z,83.17
2018-06-20T03:15:46.791Z,82.99
2018-06-20T03:18:15.144Z,83.09
2018-06-20T03:20:43.527Z,83.49
2018-06-20T03:23:11.924Z,83.01
2018-06-20T03:25:40.362Z,83.46
2018-06-20T03:28:08.708Z,83.28
2018-06-20T03:30:37.122Z,82.82
2018-06-20T03:33:05.506Z,82.36
2018-06-20T03:35:33.944Z,83.42
2018-06-20T03:38:02.279Z,83.53
2018-06-20T03:40:30.652Z,82.73
2018-06-20T03:42:59.039Z,82.66
2018-06-20T03:45:27.489Z,83.15
2018-06-20T03:47:55.855Z,83.80
2018-06-20T03:50:24.252Z,82.62
2018-06-20T03:52:52.681Z,83.94
2018-06-20T03:55:21.135Z,83.15
2018-06-20T03:57:49.484Z,83.57
2018-06-20T04:00:17.934Z,83.85
2018-06-20T04:02:46.328Z,83.33
2018-06-20T04:05:14.713Z,83.14
2018-06-20T04:07:43.332Z,82.96
2018-06-20T04:10:11.631Z,83.67
2018-06-20T04:12:40.100Z,82.51
2018-06-20T04:15:08.442Z,82.90
2018-06-20T04:17:36.864Z,82.73
2018-06-20T04:20:05.261Z,81.97
2018-06-20T04:22:33.595Z,80.23
2018-06-20T04:25:01.956Z,80.37
2018-06-20T04:27:31.127Z,79.89
2018-06-20T04:29:59.501Z,80.86
2018-06-20T04:32:27.911Z,79.85
2018-06-20T04:34:56.299Z,78.89
2018-06-20T04:37:24.595Z,79.67
2018-06-20T04:39:53.859Z,79.27
2018-06-20T04:42:22.307Z,80.08
2018-06-20T04:44:50.719Z,80.01
2018-06-20T04:47:19.139Z,78.63
2018-06-20T04:49:47.533Z,79.35
2018-06-20T04:52:15.894Z,78.72
2018-06-20T04:54:44.263Z,78.89
2018-06-20T04:57:12.635Z,78.77
2018-06-20T04:59:41.070Z,79.86
2018-06-20T05:02:09.476Z,79.46
2018-06-20T05:04:37.856Z,79.53
2018-06-20T05:07:06.247Z,80.25
2018-06-20T05:09:34.642Z,79.70
2018-06-20T05:12:03.063Z,80.52
2018-06-20T05:14:31.696Z,80.00
2018-06-20T05:17:00.144Z,79.46
2018-06-20T05:19:28.498Z,78.87
2018-06-20T05:21:56.799Z,77.79
2018-06-20T05:24:25.124Z,78.48
2018-06-20T05:26:53.535Z,79.48
2018-06-20T05:29:53.132Z,78.72
2018-06-20T05:32:21.519Z,77.86
2018-06-20T05:34:49.912Z,78.26
2018-06-20T05:37:18.393Z,78.51
2018-06-20T05:39:46.837Z,78.73
2018-06-20T05:42:15.262Z,79.18
2018-06-20T05:44:44.004Z,79.10
2018-06-20T05:47:12.363Z,78.26
2018-06-20T05:49:40.773Z,78.66
2018-06-20T05:52:09.160Z,78.38
2018-06-20T05:54:37.499Z,76.79
2018-06-20T05:57:05.853Z,77.78
2018-06-20T05:59:34.292Z,77.47
2018-06-20T06:02:02.699Z,77.42
2018-06-20T06:04:31.120Z,77.62
2018-06-20T06:06:59.492Z,78.09
2018-06-20T06:09:27.887Z,77.40
2018-06-20T06:11:56.354Z,78.92
2018-06-20T06:14:24.712Z,78.74
2018-06-20T06:16:53.167Z,78.01
2018-06-20T06:19:21.519Z,78.30
2018-06-20T06:21:50.187Z,76.95
2018-06-20T06:24:18.552Z,77.22
2018-06-20T06:26:46.955Z,78.16
2018-06-20T06:29:15.307Z,78.89
2018-06-20T06:31:43.734Z,78.25
2018-06-20T06:34:12.199Z,77.31
2018-06-20T06:36:40.588Z,78.72
2018-06-20T06:39:11.076Z,78.64
2018-06-20T06:41:39.590Z,77.17
2018-06-20T06:44:08.011Z,76.29
2018-06-20T06:46:36.431Z,77.03
2018-06-20T06:49:04.870Z,76.34
2018-06-20T06:51:33.251Z,76.76
2018-06-20T06:54:01.624Z,76.62
2018-06-20T06:56:30.027Z,76.50
2018-06-20T06:58:58.460Z,76.15
2018-06-20T07:01:32.115Z,77.09
2018-06-20T07:04:00.518Z,76.10
2018-06-20T07:06:28.836Z,76.69
2018-06-20T07:08:57.243Z,76.40
2018-06-20T07:11:25.661Z,76.09
2018-06-20T07:13:54.086Z,76.87
2018-06-20T07:16:22.646Z,77.29
2018-06-20T07:18:51.039Z,76.71
2018-06-20T07:21:19.463Z,77.58
2018-06-20T07:23:47.823Z,77.95
2018-06-20T07:26:16.224Z,77.96
2018-06-20T07:28:44.655Z,77.73
2018-06-20T07:31:13.083Z,76.64
2018-06-20T07:33:41.512Z,75.92
2018-06-20T07:36:09.992Z,75.50
2018-06-20T07:38:38.355Z,75.69
2018-06-20T07:41:06.741Z,75.12
2018-06-20T07:43:35.188Z,74.56
2018-06-20T07:46:03.591Z,73.37
2018-06-20T07:48:32.179Z,74.56
2018-06-20T07:51:00.535Z,74.16
2018-06-20T07:53:28.879Z,74.09
2018-06-20T07:55:57.211Z,73.81
2018-06-20T07:58:30.846Z,73.47
2018-06-20T08:01:04.520Z,74.34
2018-06-20T08:03:38.251Z,74.16
2018-06-20T08:06:11.830Z,73.67
2018-06-20T08:08:45.478Z,74.15
2018-06-20T08:11:19.200Z,74.52
2018-06-20T08:13:52.862Z,73.72
2018-06-20T08:16:26.571Z,73.57
2018-06-20T08:19:00.235Z,72.86
2018-06-20T08:21:28.647Z,73.60
2018-06-20T08:23:57.023Z,72.49
2018-06-20T08:26:25.424Z,73.60
2018-06-20T08:28:53.812Z,73.72
2018-06-20T08:31:22.167Z,73.36
2018-06-20T08:33:50.595Z,73.05
2018-06-20T08:36:18.951Z,73.04
2018-06-20T08:38:47.357Z,72.37
2018-06-20T08:41:15.755Z,72.02
2018-06-20T08:43:44.197Z,73.01
2018-06-20T08:46:12.572Z,72.58
2018-06-20T08:48:40.875Z,71.77
2018-06-20T08:51:09.231Z,71.03
2018-06-20T08:53:37.663Z,71.30
2018-06-20T08:56:06.091Z,71.89
2018-06-20T08:58:34.779Z,70.73
2018-06-20T09:01:03.603Z,71.76
2018-06-20T09:03:32.029Z,69.71
2018-06-20T09:06:05.516Z,68.72
2018-06-20T09:08:39.205Z,68.89
2018-06-20T09:11:12.921Z,69.66
2018-06-20T09:13:45.430Z,69.54
2018-06-20T09:16:19.123Z,69.10
2018-06-20T09:18:52.733Z,69.46
2018-06-20T09:21:21.142Z,68.88
2018-06-20T09:23:49.643Z,70.42
2018-06-20T09:26:18.063Z,70.49
2018-06-20T09:28:46.479Z,70.89
2018-06-20T09:31:14.798Z,70.31
2018-06-20T09:33:43.183Z,68.71
2018-06-20T09:36:11.596Z,67.87
2018-06-20T09:38:40.004Z,68.16
2018-06-20T09:41:08.328Z,68.02
2018-06-20T09:43:36.834Z,66.98
2018-06-20T09:46:05.223Z,67.53
2018-06-20T09:48:33.608Z,67.68
2018-06-20T09:51:01.984Z,66.98
2018-06-20T09:53:30.416Z,65.74
2018-06-20T09:55:58.886Z,65.55
2018-06-20T09:58:27.321Z,65.67
2018-06-20T10:01:01.052Z,65.17
2018-06-20T10:04:32.615Z,65.74
2018-06-20T10:07:06.336Z,65.59
2018-06-20T10:09:40.022Z,66.56
2018-06-20T10:12:16.536Z,67.09
2018-06-20T10:14:45.012Z,66.22
2018-06-20T10:17:13.427Z,67.77
2018-06-20T10:19:41.980Z,68.18
2018-06-20T10:22:10.408Z,68.19
2018-06-20T10:24:38.738Z,66.91
2018-06-20T10:27:07.119Z,67.69
2018-06-20T10:29:35.580Z,68.03
2018-06-20T10:32:03.991Z,67.12
2018-06-20T10:34:32.431Z,68.17
2018-06-20T10:37:00.854Z,66.55
2018-06-20T10:39:29.427Z,67.46
2018-06-20T10:41:58.004Z,66.90
2018-06-20T10:44:26.440Z,65.57
2018-06-20T10:47:00.387Z,65.92
2018-06-20T10:49:28.858Z,65.40
2018-06-20T10:51:57.291Z,64.29
2018-06-20T10:54:25.993Z,65.21
2018-06-20T10:56:59.619Z,64.19
2018-06-20T10:59:33.325Z,64.07
2018-06-20T11:02:06.975Z,60.96
2018-06-20T11:04:40.737Z,59.65
2018-06-20T11:07:14.211Z,58.89
2018-06-20T11:09:47.920Z,59.20
2018-06-20T11:12:21.426Z,60.41
2018-06-20T11:14:49.996Z,61.59
2018-06-20T11:17:18.343Z,58.78
2018-06-20T11:19:47.705Z,59.08
2018-06-20T11:22:16.152Z,55.90
2018-06-20T11:24:44.592Z,55.69
2018-06-20T11:27:12.979Z,54.85
2018-06-20T11:29:41.304Z,56.14
2018-06-20T11:32:09.778Z,54.78
2018-06-20T11:34:38.195Z,53.75
2018-06-20T11:37:06.657Z,53.54
2018-06-20T11:39:35.200Z,51.97
2018-06-20T11:42:03.580Z,52.94
2018-06-20T11:44:32.168Z,51.56
2018-06-20T11:47:05.943Z,51.37
2018-06-20T11:49:34.385Z,50.68
2018-06-20T11:52:06.928Z,49.10
2018-06-20T11:54:35.320Z,48.90
2018-06-20T11:57:03.723Z,49.21
2018-06-20T11:59:37.510Z,50.47
2018-06-20T12:02:11.307Z,51.62
2018-06-20T12:04:45.006Z,51.12
2018-06-20T12:07:18.708Z,50.11
2018-06-20T12:09:52.367Z,48.76
2018-06-20T12:12:26.128Z,49.12
2018-06-20T12:14:59.851Z,49.14
2018-06-20T12:17:33.559Z,48.53
2018-06-20T12:20:07.278Z,46.68
2018-06-20T12:22:40.819Z,44.63
2018-06-20T12:25:14.427Z,45.35
2018-06-20T12:27:48.259Z,46.57
2018-06-20T12:30:21.972Z,48.43
2018-06-20T12:32:55.507Z,45.61
2018-06-20T12:35:29.199Z,45.16
2018-06-20T12:38:02.907Z,43.99
2018-06-20T12:40:36.563Z,43.90
2018-06-20T12:43:10.272Z,43.48
2018-06-20T12:45:39.145Z,43.34
2018-06-20T12:48:07.648Z,44.23
2018-06-20T12:50:36.045Z,45.29
2018-06-20T12:53:04.435Z,45.38
2018-06-20T12:55:32.879Z,45.53
2018-06-20T12:58:01.320Z,46.01
2018-06-20T13:00:29.676Z,46.27
2018-06-20T13:02:58.063Z,47.63
2018-06-20T13:05:26.500Z,48.63
2018-06-20T13:07:54.912Z,49.46
2018-06-20T13:10:23.297Z,50.16
2018-06-20T13:12:51.620Z,49.08
2018-06-20T13:15:19.994Z,48.76
2018-06-20T13:17:48.444Z,46.73
2018-06-20T13:20:16.937Z,46.88
2018-06-20T13:22:45.340Z,48.06
2018-06-20T13:25:13.762Z,48.53
2018-06-20T13:27:47.914Z,46.96
2018-06-20T13:30:16.693Z,47.76
2018-06-20T13:32:50.396Z,46.77
2018-06-20T13:35:23.869Z,46.19
2018-06-20T13:37:57.567Z,46.63
2018-06-20T13:40:31.127Z,46.22
2018-06-20T13:43:04.834Z,44.97
2018-06-20T13:45:38.629Z,45.08
2018-06-20T13:48:12.228Z,45.87
2018-06-20T13:50:40.613Z,44.78
2018-06-20T13:53:09.088Z,43.04
2018-06-20T13:55:37.559Z,43.31
2018-06-20T13:58:06.056Z,43.17
2018-06-20T14:00:34.483Z,42.60
2018-06-20T14:03:02.966Z,43.18
2018-06-20T14:05:31.340Z,42.67
2018-06-20T14:07:59.762Z,42.91
2018-06-20T14:10:28.127Z,43.08
2018-06-20T14:12:56.573Z,43.47
2018-06-20T14:15:25.019Z,43.70
2018-06-20T14:17:53.516Z,44.63
2018-06-20T14:20:27.284Z,44.03
2018-06-20T14:22:56.791Z,43.67
2018-06-20T14:25:25.237Z,44.52
2018-06-20T14:27:53.637Z,44.33
2018-06-20T14:30:27.643Z,44.01
2018-06-20T14:33:01.338Z,44.60
2018-06-20T14:35:35.606Z,43.03
2018-06-20T14:38:09.295Z,43.23
2018-06-20T14:41:15.793Z,42.60
2018-06-20T14:43:49.524Z,42.74
2018-06-20T14:46:20.817Z,43.24
2018-06-20T14:48:49.199Z,43.38
2018-06-20T14:51:18.072Z,43.03
2018-06-20T14:53:47.080Z,43.38
2018-06-20T14:56:16.420Z,43.32
2018-06-20T14:58:45.073Z,45.65
2018-06-20T15:01:13.478Z,45.46
2018-06-20T15:03:42.032Z,45.33
2018-06-20T15:06:10.441Z,44.77
2018-06-20T15:08:38.909Z,43.69
2018-06-20T15:11:07.477Z,43.11
2018-06-20T15:13:35.898Z,43.71
2018-06-20T15:16:09.668Z,44.07
2018-06-20T15:18:38.013Z,43.50
2018-06-20T15:21:06.553Z,43.74
2018-06-20T15:23:35.424Z,43.48
2018-06-20T15:26:09.358Z,43.41
2018-06-20T15:28:43.033Z,43.28
2018-06-20T15:31:16.680Z,42.78
2018-06-20T15:33:50.459Z,43.47
2018-06-20T15:36:24.203Z,41.89
2018-06-20T15:38:52.672Z,42.81
2018-06-20T15:41:21.110Z,42.44
2018-06-20T15:43:49.602Z,41.11
2018-06-20T15:46:18.124Z,42.30
2018-06-20T15:48:46.563Z,43.25
2018-06-20T15:51:14.973Z,43.34
2018-06-20T15:53:43.349Z,40.58
2018-06-20T15:56:11.779Z,40.41
2018-06-20T15:58:40.468Z,40.66
2018-06-20T16:01:08.916Z,41.63
2018-06-20T16:03:37.284Z,41.73
2018-06-20T16:06:05.658Z,39.96
2018-06-20T16:08:38.308Z,38.61
2018-06-20T16:11:06.928Z,35.94
2018-06-20T16:13:35.429Z,33.85
2018-06-20T16:16:05.310Z,32.99
2018-06-20T16:18:33.685Z,32.02
2018-06-20T16:21:07.387Z,31.30
2018-06-20T16:23:41.120Z,31.64
2018-06-20T16:27:15.702Z,30.90
2018-06-20T16:29:49.620Z,30.62
2018-06-20T16:32:18.059Z,29.54
2018-06-20T16:34:46.486Z,28.68
2018-06-20T16:37:15.905Z,29.54
2018-06-20T16:39:44.533Z,29.39
2018-06-20T16:42:12.967Z,29.76
2018-06-20T16:44:41.375Z,28.44
2018-06-20T16:47:09.835Z,29.56
2018-06-20T16:49:38.287Z,28.32
2018-06-20T16:52:06.811Z,28.31
2018-06-20T16:54:36.013Z,29.46
2018-06-20T16:57:04.598Z,29.02
2018-06-20T16:59:33.218Z,29.02
2018-06-20T17:02:06.943Z,29.07
2018-06-20T17:04:38.388Z,29.44
2018-06-20T17:07:08.089Z,30.00
2018-06-20T17:09:36.554Z,30.85
2018-06-20T17:12:10.530Z,30.96
2018-06-20T17:14:44.328Z,31.06
2018-06-20T17:17:18.264Z,31.12
2018-06-20T17:19:52.013Z,30.69
2018-06-20T17:22:25.773Z,31.49
2018-06-20T17:25:00.516Z,32.92
2018-06-20T17:27:28.999Z,32.17
2018-06-20T17:29:58.031Z,33.00
2018-06-20T17:32:26.489Z,33.15
2018-06-20T17:34:54.937Z,34.04
2018-06-20T17:37:23.290Z,33.96
2018-06-20T17:39:51.664Z,34.40
2018-06-20T17:42:20.844Z,34.84
2018-06-20T17:44:49.280Z,34.63
2018-06-20T17:47:17.717Z,34.49
2018-06-20T17:49:46.275Z,34.45
2018-06-20T17:52:14.651Z,34.35
2018-06-20T17:54:43.040Z,35.75
2018-06-20T17:57:12.680Z,35.21
2018-06-20T17:59:42.567Z,35.76
2018-06-20T18:02:12.675Z,36.64
2018-06-20T18:04:46.728Z,37.33
2018-06-20T18:07:20.648Z,38.77
2018-06-20T18:09:54.209Z,37.41
2018-06-20T18:13:00.015Z,38.20
2018-06-20T18:15:33.684Z,37.59
2018-06-20T18:18:02.044Z,38.07
2018-06-20T18:20:30.404Z,38.99
2018-06-20T18:22:58.805Z,41.25
2018-06-20T18:25:27.265Z,42.15
2018-06-20T18:27:55.667Z,41.96
2018-06-20T18:30:24.077Z,42.11
2018-06-20T18:32:52.479Z,40.89
2018-06-20T18:35:20.835Z,41.36
2018-06-20T18:37:49.292Z,41.28
2018-06-20T18:40:17.655Z,42.29
2018-06-20T18:42:45.979Z,43.29
2018-06-20T18:45:15.024Z,44.16
2018-06-20T18:47:49.744Z,43.40
2018-06-20T18:50:18.131Z,43.62
2018-06-20T18:52:46.470Z,43.85
2018-06-20T18:55:14.869Z,43.80
2018-06-20T18:57:48.540Z,44.51
2018-06-20T19:00:22.132Z,45.08
2018-06-20T19:02:55.917Z,46.03
2018-06-20T19:05:29.666Z,46.02
2018-06-20T19:08:03.373Z,46.34
2018-06-20T19:10:31.774Z,47.03
2018-06-20T19:13:00.140Z,48.34
2018-06-20T19:15:28.799Z,49.52
2018-06-20T19:17:57.220Z,50.27
2018-06-20T19:20:25.759Z,50.70
2018-06-20T19:22:54.076Z,50.88
2018-06-20T19:25:22.474Z,51.83
2018-06-20T19:27:50.831Z,52.67
2018-06-20T19:30:19.285Z,52.43
2018-06-20T19:32:47.652Z,52.29
2018-06-20T19:35:15.997Z,53.09
2018-06-20T19:37:44.429Z,53.32
2018-06-20T19:40:12.819Z,53.70
2018-06-20T19:42:41.210Z,54.08
2018-06-20T19:45:09.591Z,54.92
2018-06-20T19:47:37.995Z,55.13
2018-06-20T19:50:06.358Z,54.81
2018-06-20T19:52:34.735Z,55.04
2018-06-20T19:55:04.094Z,55.97
2018-06-20T19:57:32.463Z,56.33
2018-06-20T20:00:00.881Z,56.37
2018-06-20T20:02:29.517Z,56.50
2018-06-20T20:04:57.861Z,57.09
2018-06-20T20:07:26.226Z,58.05
2018-06-20T20:09:54.699Z,57.85
2018-06-20T20:12:23.103Z,58.05
2018-06-20T20:14:51.579Z,58.20
2018-06-20T20:17:19.960Z,57.79
2018-06-20T20:19:48.341Z,58.55
2018-06-20T20:22:16.726Z,58.72
2018-06-20T20:24:45.059Z,58.78
2018-06-20T20:27:13.431Z,58.34
2018-06-20T20:29:41.843Z,58.55
2018-06-20T20:32:10.281Z,58.55
2018-06-20T20:34:38.665Z,59.28
2018-06-20T20:37:07.067Z,59.37
2018-06-20T20:39:35.496Z,59.49
2018-06-20T20:42:03.922Z,60.30
2018-06-20T20:44:32.336Z,60.20
2018-06-20T20:47:00.754Z,60.05
2018-06-20T20:49:29.113Z,60.61
2018-06-20T20:51:57.594Z,60.69
2018-06-20T20:54:26.048Z,60.70
2018-06-20T20:56:54.427Z,59.99
2018-06-20T20:59:22.836Z,60.41
2018-06-20T21:01:51.188Z,60.16
2018-06-20T21:04:19.544Z,58.88
2018-06-20T21:06:47.982Z,59.57
2018-06-20T21:09:16.372Z,60.89
2018-06-20T21:11:44.831Z,61.50
2018-06-20T21:14:13.218Z,62.15
2018-06-20T21:16:41.742Z,62.75
2018-06-20T21:19:10.100Z,61.69
2018-06-20T21:21:38.464Z,61.85
2018-06-20T21:24:06.818Z,62.79
2018-06-20T21:26:35.212Z,62.22
2018-06-20T21:29:03.612Z,62.29
2018-06-20T21:31:32.010Z,62.45
2018-06-20T21:34:00.381Z,61.99
2018-06-20T21:36:28.779Z,62.72
2018-06-20T21:38:57.103Z,62.88
2018-06-20T21:41:25.497Z,63.03
2018-06-20T21:43:53.905Z,61.85
2018-06-20T21:46:22.288Z,62.13
2018-06-20T21:48:50.634Z,62.83
2018-06-20T21:51:18.996Z,62.60
2018-06-20T21:53:47.415Z,63.41
2018-06-20T21:56:15.855Z,63.92
2018-06-20T21:58:44.260Z,63.31
2018-06-20T22:01:12.618Z,63.69
2018-06-20T22:03:40.961Z,64.57
2018-06-20T22:06:09.551Z,64.60
2018-06-20T22:08:37.953Z,63.69
2018-06-20T22:11:06.521Z,64.94
2018-06-20T22:13:34.945Z,64.75
2018-06-20T22:16:03.364Z,63.95
2018-06-20T22:18:31.733Z,63.46
2018-06-20T22:21:00.152Z,65.17
2018-06-20T22:23:28.503Z,65.11
2018-06-20T22:25:56.903Z,65.32
2018-06-20T22:28:25.250Z,65.12
2018-06-20T22:30:53.710Z,64.61
2018-06-20T22:33:22.022Z,63.95
2018-06-20T22:35:50.416Z,64.83
2018-06-20T22:38:18.819Z,64.11
2018-06-20T22:40:47.247Z,64.11
2018-06-20T22:43:15.651Z,65.02
2018-06-20T22:45:44.016Z,65.56
2018-06-20T22:48:12.367Z,64.99
2018-06-20T22:50:40.776Z,65.47
2018-06-20T22:53:09.287Z,65.23
2018-06-20T22:55:37.664Z,64.31
2018-06-20T22:58:06.076Z,64.21
2018-06-20T23:00:34.470Z,64.05
2018-06-20T23:03:02.861Z,63.62
2018-06-20T23:05:31.216Z,63.65
2018-06-20T23:07:59.626Z,64.13
2018-06-20T23:10:28.024Z,64.18
2018-06-20T23:12:56.412Z,64.21
2018-06-20T23:15:24.826Z,64.08
2018-06-20T23:17:53.309Z,65.08
2018-06-20T23:20:21.708Z,64.20
2018-06-20T23:22:50.104Z,65.31
2018-06-20T23:25:18.520Z,64.46
2018-06-20T23:27:46.926Z,64.41
2018-06-20T23:30:15.317Z,65.37
2018-06-20T23:32:43.640Z,65.49
2018-06-20T23:35:12.050Z,64.62
2018-06-20T23:37:40.418Z,64.37
2018-06-20T23:40:08.839Z,64.14
2018-06-20T23:42:37.217Z,64.52
2018-06-20T23:45:05.708Z,65.52
2018-06-20T23:47:34.176Z,65.75
2018-06-20T23:50:02.523Z,65.21
2018-06-20T23:52:30.933Z,63.66
2018-06-20T23:54:59.260Z,64.26
2018-06-20T23:57:27.626Z,65.23
2018-06-20T23:59:56.005Z,65.01
